^^
Saratoga-Weather Station Historical Data
Daily Summary for November 22, 2020 Units:  Metric    English   Both
Daily Weekly Monthly Yearly Custom
  High: Low: Average:
Temperature: 6.2 °C -0.3 °C 1.6 °C
Dew Point: 3.9 °C -0.9 °C 0.8 °C
Humidity: 96% 85% 94%
Wind Speed: 6.4km/h 0km/h 0.6km/h
Wind Gust: 6.4km/h - -
Wind- - ESE
Pressure: 1030.8 hPa 1029.1 hPa -
Precipitation: 0.0 mm    
Historical Graphs
 
 
Tabular Data for November 22, 2020
Time Temperature Dew Point Pressure Wind Wind Speed Wind Gust Humidity Rainfall Rate (Hourly) solar
00:01 0.5 °C -0.2 °C 1030.8 hPa Calm     95% 0.0 mm 0 W/m2
00:06 0.6 °C -0.1 °C 1030.8 hPa Calm     95% 0.0 mm 0 W/m2
00:11 0.6 °C 0 °C 1030.8 hPa Calm     96% 0.0 mm 0 W/m2
00:16 0.6 °C 0 °C 1030.8 hPa Calm     96% 0.0 mm 0 W/m2
00:21 0.6 °C 0 °C 1030.8 hPa Calm     96% 0.0 mm 0 W/m2
00:26 0.6 °C 0 °C 1030.5 hPa Calm     96% 0.0 mm 0 W/m2
00:31 0.6 °C 0 °C 1030.5 hPa Calm     96% 0.0 mm 0 W/m2
00:36 0.6 °C 0 °C 1030.5 hPa Calm     96% 0.0 mm 0 W/m2
00:41 0.6 °C 0 °C 1030.5 hPa Calm     96% 0.0 mm 0 W/m2
00:46 0.6 °C 0 °C 1030.5 hPa Calm     96% 0.0 mm 0 W/m2
00:51 0.6 °C 0 °C 1030.5 hPa Calm     96% 0.0 mm 0 W/m2
00:57 0.6 °C -0.1 °C 1030.5 hPa Calm     95% 0.0 mm 0 W/m2
01:02 0.5 °C -0.2 °C 1030.5 hPa Calm     95% 0.0 mm 0 W/m2
01:07 0.4 °C -0.3 °C 1030.1 hPa Calm     95% 0.0 mm 0 W/m2
01:12 0.4 °C -0.3 °C 1030.1 hPa Calm     95% 0.0 mm 0 W/m2
01:17 0.3 °C -0.4 °C 1030.1 hPa Calm     95% 0.0 mm 0 W/m2
01:22 0.3 °C -0.4 °C 1030.1 hPa Calm     95% 0.0 mm 0 W/m2
01:27 0.3 °C -0.3 °C 1030.1 hPa Calm     96% 0.0 mm 0 W/m2
01:32 0.3 °C -0.3 °C 1030.1 hPa Calm     96% 0.0 mm 0 W/m2
01:37 0.3 °C -0.3 °C 1030.1 hPa Calm     96% 0.0 mm 0 W/m2
01:42 0.3 °C -0.3 °C 1030.1 hPa Calm     96% 0.0 mm 0 W/m2
01:47 0.3 °C -0.4 °C 1030.1 hPa Calm     95% 0.0 mm 0 W/m2
01:52 0.3 °C -0.3 °C 1030.1 hPa Calm   1.6 km/h 96% 0.0 mm 0 W/m2
01:57 0.3 °C -0.3 °C 1030.1 hPa Calm     96% 0.0 mm 0 W/m2
02:02 0.3 °C -0.3 °C 1030.1 hPa Calm   1.6 km/h 96% 0.0 mm 0 W/m2
02:07 0.3 °C -0.4 °C 1030.1 hPa Calm   1.6 km/h 95% 0.0 mm 0 W/m2
02:12 0.3 °C -0.4 °C 1030.1 hPa Calm     95% 0.0 mm 0 W/m2
02:17 0.2 °C -0.5 °C 1030.1 hPa Calm     95% 0.0 mm 0 W/m2
02:22 0.2 °C -0.5 °C 1029.8 hPa Calm     95% 0.0 mm 0 W/m2
02:27 0.1 °C -0.6 °C 1030.1 hPa Calm   1.6 km/h 95% 0.0 mm 0 W/m2
02:32 0 °C -0.6 °C 1030.1 hPa Calm     96% 0.0 mm 0 W/m2
02:37 -0.1 °C -0.7 °C 1030.1 hPa Calm     96% 0.0 mm 0 W/m2
02:42 -0.1 °C -0.7 °C 1029.8 hPa Calm     96% 0.0 mm 0 W/m2
02:47 -0.2 °C -0.9 °C 1029.8 hPa Calm     95% 0.0 mm 0 W/m2
02:52 -0.2 °C -0.9 °C 1030.1 hPa Calm     95% 0.0 mm 0 W/m2
02:57 -0.2 °C -0.8 °C 1030.1 hPa Calm     96% 0.0 mm 0 W/m2
03:02 -0.2 °C -0.8 °C 1030.1 hPa Calm     96% 0.0 mm 0 W/m2
03:07 -0.3 °C -0.9 °C 1030.1 hPa Calm     96% 0.0 mm 0 W/m2
03:12 -0.2 °C -0.8 °C 1030.1 hPa SE 1.4 km/h 3.2 km/h 96% 0.0 mm 0 W/m2
03:17 -0.2 °C -0.8 °C 1030.1 hPa Calm     96% 0.0 mm 0 W/m2
03:22 -0.1 °C -0.7 °C 1030.1 hPa Calm   3.2 km/h 96% 0.0 mm 0 W/m2
03:27 -0.1 °C -0.7 °C 1029.8 hPa Calm     96% 0.0 mm 0 W/m2
03:32 0.1 °C -0.5 °C 1030.1 hPa Calm     96% 0.0 mm 0 W/m2
03:37 0.2 °C -0.4 °C 1029.8 hPa Calm   3.2 km/h 96% 0.0 mm 0 W/m2
03:42 0.2 °C -0.4 °C 1029.8 hPa SE 1.4 km/h 1.6 km/h 96% 0.0 mm 0 W/m2
03:47 0.3 °C -0.3 °C 1029.8 hPa Calm   3.2 km/h 96% 0.0 mm 0 W/m2
03:52 0.4 °C -0.2 °C 1030.1 hPa Calm     96% 0.0 mm 0 W/m2
03:57 0.4 °C -0.2 °C 1030.1 hPa Calm   1.6 km/h 96% 0.0 mm 0 W/m2
04:02 0.5 °C -0.1 °C 1030.1 hPa Calm     96% 0.0 mm 0 W/m2
04:07 0.6 °C 0 °C 1029.8 hPa Calm     96% 0.0 mm 0 W/m2
04:12 0.6 °C 0 °C 1029.8 hPa Calm     96% 0.0 mm 0 W/m2
04:17 0.7 °C 0.1 °C 1029.8 hPa Calm     96% 0.0 mm 0 W/m2
04:22 0.7 °C 0.1 °C 1029.8 hPa Calm     96% 0.0 mm 0 W/m2
04:27 0.8 °C 0.2 °C 1029.8 hPa Calm   1.6 km/h 96% 0.0 mm 0 W/m2
04:32 0.8 °C 0.2 °C 1029.8 hPa Calm   3.2 km/h 96% 0.0 mm 0 W/m2
04:37 0.8 °C 0.2 °C 1029.8 hPa Calm     96% 0.0 mm 0 W/m2
04:42 0.8 °C 0.2 °C 1029.8 hPa SE 1.4 km/h 3.2 km/h 96% 0.0 mm 0 W/m2
04:47 0.8 °C 0.2 °C 1030.1 hPa Calm     96% 0.0 mm 0 W/m2
04:52 0.8 °C 0.2 °C 1029.8 hPa Calm   3.2 km/h 96% 0.0 mm 0 W/m2
04:57 0.8 °C 0.2 °C 1030.1 hPa Calm     96% 0.0 mm 0 W/m2
05:02 0.9 °C 0.3 °C 1030.1 hPa Calm     96% 0.0 mm 0 W/m2
05:07 0.9 °C 0.3 °C 1030.1 hPa Calm     96% 0.0 mm 0 W/m2
05:12 0.9 °C 0.3 °C 1030.1 hPa Calm   3.2 km/h 96% 0.0 mm 0 W/m2
05:17 1 °C 0.4 °C 1030.1 hPa SE 3.2 km/h 3.2 km/h 96% 0.0 mm 0 W/m2
05:22 1.1 °C 0.5 °C 1029.8 hPa ESE 4.7 km/h 6.4 km/h 96% 0.0 mm 0 W/m2
05:27 1 °C 0.4 °C 1030.1 hPa NW 3.2 km/h 4.8 km/h 96% 0.0 mm 0 W/m2
05:32 0.9 °C 0.3 °C 1029.8 hPa ESE 6.4 km/h 6.4 km/h 96% 0.0 mm 0 W/m2
05:37 1 °C 0.4 °C 1030.1 hPa Calm   3.2 km/h 96% 0.0 mm 0 W/m2
05:42 0.9 °C 0.3 °C 1030.1 hPa Calm     96% 0.0 mm 0 W/m2
05:47 0.9 °C 0.3 °C 1030.1 hPa ENE 1.4 km/h 1.6 km/h 96% 0.0 mm 0 W/m2
05:53 1 °C 0.4 °C 1030.1 hPa Calm   1.6 km/h 96% 0.0 mm 0 W/m2
05:58 1 °C 0.4 °C 1030.1 hPa Calm     96% 0.0 mm 0 W/m2
06:03 1.1 °C 0.5 °C 1029.8 hPa ENE 3.2 km/h 3.2 km/h 96% 0.0 mm 0 W/m2
06:08 1.2 °C 0.6 °C 1029.8 hPa Calm   4.8 km/h 96% 0.0 mm 0 W/m2
06:13 1.2 °C 0.6 °C 1029.8 hPa East 1.4 km/h 3.2 km/h 96% 0.0 mm 0 W/m2
06:18 1.2 °C 0.6 °C 1029.8 hPa Calm   3.2 km/h 96% 0.0 mm 0 W/m2
06:23 1.2 °C 0.6 °C 1029.8 hPa ENE 1.4 km/h 1.6 km/h 96% 0.0 mm 0 W/m2
06:28 1.1 °C 0.5 °C 1029.8 hPa Calm   1.6 km/h 96% 0.0 mm 0 W/m2
06:33 1.1 °C 0.5 °C 1029.8 hPa ENE 1.4 km/h 1.6 km/h 96% 0.0 mm 0 W/m2
06:38 1.1 °C 0.5 °C 1030.1 hPa ENE 1.4 km/h 3.2 km/h 96% 0.0 mm 0 W/m2
06:43 1.1 °C 0.5 °C 1029.8 hPa Calm     96% 0.0 mm 0 W/m2
06:48 1.2 °C 0.6 °C 1029.8 hPa Calm     96% 0.0 mm 0 W/m2
06:53 1.2 °C 0.6 °C 1029.8 hPa Calm   1.6 km/h 96% 0.0 mm 0 W/m2
06:58 1.2 °C 0.6 °C 1029.8 hPa Calm     96% 0.0 mm 0 W/m2
07:03 1.2 °C 0.6 °C 1029.8 hPa ENE 1.4 km/h 1.6 km/h 96% 0.0 mm 0 W/m2
07:08 1.2 °C 0.5 °C 1030.1 hPa Calm   3.2 km/h 95% 0.0 mm 0 W/m2
07:13 1.2 °C 0.5 °C 1030.1 hPa East 1.4 km/h 3.2 km/h 95% 0.0 mm 0 W/m2
07:18 1.2 °C 0.5 °C 1030.1 hPa Calm     95% 0.0 mm 0 W/m2
07:23 1.2 °C 0.5 °C 1029.8 hPa Calm   3.2 km/h 95% 0.0 mm 0 W/m2
07:28 1.2 °C 0.5 °C 1029.8 hPa Calm   3.2 km/h 95% 0.0 mm 0 W/m2
07:33 1.3 °C 0.6 °C 1029.8 hPa Calm   1.6 km/h 95% 0.0 mm 0 W/m2
07:38 1.3 °C 0.6 °C 1029.8 hPa Calm     95% 0.0 mm 0 W/m2
07:43 1.3 °C 0.6 °C 1029.8 hPa Calm     95% 0.0 mm 0 W/m2
07:48 1.4 °C 0.7 °C 1029.8 hPa Calm   1.6 km/h 95% 0.0 mm 0 W/m2
07:53 1.4 °C 0.7 °C 1029.8 hPa Calm     95% 0.0 mm 0 W/m2
07:58 1.5 °C 0.8 °C 1029.8 hPa Calm   1.6 km/h 95% 0.0 mm 0 W/m2
08:03 1.6 °C 0.9 °C 1029.8 hPa NE 1.4 km/h 1.6 km/h 95% 0.0 mm 0 W/m2
08:08 1.7 °C 1 °C 1029.8 hPa Calm   3.2 km/h 95% 0.0 mm 0 W/m2
08:13 1.8 °C 1.1 °C 1029.8 hPa East 1.4 km/h 3.2 km/h 95% 0.0 mm 5 W/m2
08:18 1.8 °C 1.1 °C 1029.8 hPa East 1.4 km/h 3.2 km/h 95% 0.0 mm 7 W/m2
08:23 1.8 °C 1.1 °C 1029.8 hPa East 3.2 km/h 4.8 km/h 95% 0.0 mm 9 W/m2
08:28 1.7 °C 1 °C 1029.8 hPa East 3.2 km/h 3.2 km/h 95% 0.0 mm 12 W/m2
08:33 1.7 °C 1 °C 1029.8 hPa Calm   4.8 km/h 95% 0.0 mm 18 W/m2
08:38 1.7 °C 1 °C 1029.8 hPa Calm     95% 0.0 mm 21 W/m2
08:43 1.7 °C 1 °C 1029.8 hPa East 3.2 km/h 3.2 km/h 95% 0.0 mm 26 W/m2
08:48 1.7 °C 1 °C 1029.8 hPa Calm   3.2 km/h 95% 0.0 mm 30 W/m2
08:53 1.7 °C 1 °C 1029.5 hPa Calm   3.2 km/h 95% 0.0 mm 33 W/m2
08:58 1.8 °C 1.1 °C 1029.8 hPa Calm     95% 0.0 mm 33 W/m2
09:03 1.8 °C 1.1 °C 1029.8 hPa Calm   1.6 km/h 95% 0.0 mm 37 W/m2
09:08 1.8 °C 1.1 °C 1029.5 hPa Calm   3.2 km/h 95% 0.0 mm 46 W/m2
09:13 1.8 °C 1.1 °C 1029.8 hPa Calm     95% 0.0 mm 54 W/m2
09:18 1.9 °C 1.2 °C 1029.8 hPa Calm     95% 0.0 mm 56 W/m2
09:23 1.9 °C 1.2 °C 1029.8 hPa Calm     95% 0.0 mm 53 W/m2
09:28 2.1 °C 1.4 °C 1029.8 hPa Calm     95% 0.0 mm 51 W/m2
09:33 2.1 °C 1.4 °C 1029.8 hPa Calm     95% 0.0 mm 54 W/m2
09:38 2.2 °C 1.5 °C 1029.8 hPa Calm     95% 0.0 mm 62 W/m2
09:43 2.3 °C 1.6 °C 1029.8 hPa Calm     95% 0.0 mm 65 W/m2
09:48 2.4 °C 1.7 °C 1029.8 hPa East 1.4 km/h 3.2 km/h 95% 0.0 mm 65 W/m2
09:53 2.4 °C 1.5 °C 1029.8 hPa Calm     94% 0.0 mm 69 W/m2
09:58 2.5 °C 1.6 °C 1029.8 hPa Calm     94% 0.0 mm 63 W/m2
10:03 2.6 °C 1.7 °C 1029.8 hPa Calm     94% 0.0 mm 62 W/m2
10:08 2.7 °C 1.8 °C 1029.5 hPa Calm     94% 0.0 mm 72 W/m2
10:13 2.8 °C 1.9 °C 1029.8 hPa Calm     94% 0.0 mm 93 W/m2
10:18 2.9 °C 2 °C 1029.8 hPa Calm     94% 0.0 mm 98 W/m2
10:23 3.1 °C 2.2 °C 1029.8 hPa Calm     94% 0.0 mm 84 W/m2
10:28 3.2 °C 2.3 °C 1029.5 hPa East 3.2 km/h 3.2 km/h 94% 0.0 mm 79 W/m2
10:33 3.4 °C 2.4 °C 1029.5 hPa Calm   1.6 km/h 93% 0.0 mm 97 W/m2
10:38 3.6 °C 2.6 °C 1029.8 hPa Calm   1.6 km/h 93% 0.0 mm 113 W/m2
10:43 3.8 °C 2.8 °C 1029.8 hPa Calm   1.6 km/h 93% 0.0 mm 113 W/m2
10:48 3.9 °C 2.7 °C 1029.5 hPa Calm   4.8 km/h 92% 0.0 mm 134 W/m2
10:53 4.1 °C 2.9 °C 1029.5 hPa East 4.7 km/h 4.8 km/h 92% 0.0 mm 158 W/m2
10:58 4.3 °C 3 °C 1029.5 hPa East 3.2 km/h 4.8 km/h 91% 0.0 mm 167 W/m2
11:03 4.5 °C 3.2 °C 1029.8 hPa ENE 1.4 km/h 1.6 km/h 91% 0.0 mm 146 W/m2
11:08 4.7 °C 3.2 °C 1029.5 hPa Calm   1.6 km/h 90% 0.0 mm 139 W/m2
11:13 4.9 °C 3.4 °C 1029.5 hPa Calm   3.2 km/h 90% 0.0 mm 139 W/m2
11:18 5.1 °C 3.4 °C 1029.5 hPa Calm   3.2 km/h 89% 0.0 mm 132 W/m2
11:23 5.2 °C 3.4 °C 1029.5 hPa East 1.4 km/h 3.2 km/h 88% 0.0 mm 105 W/m2
11:28 5.3 °C 3.5 °C 1029.5 hPa ESE 1.4 km/h 4.8 km/h 88% 0.0 mm 98 W/m2
11:33 5.3 °C 3.3 °C 1029.5 hPa ESE 4.7 km/h 4.8 km/h 87% 0.0 mm 100 W/m2
11:38 5.4 °C 3.4 °C 1029.5 hPa ESE 1.4 km/h 3.2 km/h 87% 0.0 mm 111 W/m2
11:43 5.3 °C 3.1 °C 1029.5 hPa East 3.2 km/h 4.8 km/h 86% 0.0 mm 118 W/m2
11:48 5.3 °C 3.3 °C 1029.5 hPa ESE 1.4 km/h 4.8 km/h 87% 0.0 mm 100 W/m2
11:54 5.4 °C 3.4 °C 1029.5 hPa ESE 1.4 km/h 1.6 km/h 87% 0.0 mm 91 W/m2
11:59 5.6 °C 3.6 °C 1029.1 hPa ESE 3.2 km/h 4.8 km/h 87% 0.0 mm 100 W/m2
12:04 5.7 °C 3.7 °C 1029.1 hPa Calm   3.2 km/h 87% 0.0 mm 114 W/m2
12:09 5.8 °C 3.6 °C 1029.1 hPa ESE 1.4 km/h 4.8 km/h 86% 0.0 mm 114 W/m2
12:14 6 °C 3.8 °C 1029.1 hPa ENE 4.7 km/h 6.4 km/h 86% 0.0 mm 120 W/m2
12:19 6.1 °C 3.8 °C 1029.1 hPa ENE 1.4 km/h 3.2 km/h 85% 0.0 mm 121 W/m2
12:24 6.1 °C 3.8 °C 1029.1 hPa ESE 6.4 km/h 6.4 km/h 85% 0.0 mm 125 W/m2
12:29 6.2 °C 3.9 °C 1029.1 hPa Calm   3.2 km/h 85% 0.0 mm 120 W/m2
Juneau County Weather
Compliments of Weather Underground - 2 mb